Time;durP1;ratioP1;P1;durP2;ratioP2;P2;SDS_P1;SDS_P2;PMS_P1;PMS_P2;Temp;Humidity;BMP_temperature;BMP_pressure;BME280_temperature;BME280_humidity;BME280_pressure;Samples;Min_cycle;Max_cycle;Signal;HPM_P1;HPM_P2
2022/12/08 00:00:35;;;;;;;10.10;5.15;;;5.90;99.90;;;;;;4195243;28;20025;-64
2022/12/08 00:02:36;;;;;;;6.93;4.95;;;5.90;99.90;;;;;;4194865;28;20078;-64
2022/12/08 00:09:20;;;;;;;7.35;4.88;;;5.90;99.90;;;;;;4195708;28;20035;-64
2022/12/08 00:09:21;;;;;;;7.78;4.65;;;5.90;99.90;;;;;;4195164;28;20113;-64
2022/12/08 00:11:22;;;;;;;7.75;4.28;;;5.90;99.90;;;;;;4190433;28;20356;-64
2022/12/08 00:13:22;;;;;;;6.95;4.35;;;5.90;99.90;;;;;;4190929;28;20047;-64
2022/12/08 00:15:23;;;;;;;6.78;4.45;;;5.90;99.90;;;;;;4192044;28;20118;-64
2022/12/08 00:17:23;;;;;;;5.93;4.30;;;5.90;99.90;;;;;;4191591;28;20047;-64
2022/12/08 00:19:25;;;;;;;7.78;4.18;;;5.90;99.90;;;;;;4193304;28;20045;-64
2022/12/08 00:21:27;;;;;;;6.63;4.80;;;5.90;99.90;;;;;;4190773;28;20071;-64
2022/12/08 00:23:28;;;;;;;10.20;4.43;;;5.90;99.90;;;;;;4195704;28;20105;-64
2022/12/08 00:25:30;;;;;;;5.78;4.47;;;5.90;99.90;;;;;;4193684;28;20050;-64
2022/12/08 00:27:30;;;;;;;8.25;5.28;;;5.90;99.90;;;;;;4182128;28;20101;-65
2022/12/08 00:29:31;;;;;;;9.32;5.18;;;5.80;99.90;;;;;;4194527;28;20107;-65
2022/12/08 00:31:31;;;;;;;9.50;4.95;;;5.80;99.90;;;;;;4194217;28;20040;-64
2022/12/08 00:33:32;;;;;;;6.25;4.78;;;5.80;99.90;;;;;;4195267;28;20090;-64
2022/12/08 00:35:33;;;;;;;6.13;4.78;;;5.80;99.90;;;;;;4193370;28;20041;-64
2022/12/08 00:37:33;;;;;;;10.52;5.68;;;5.70;99.90;;;;;;4192077;28;20025;-64
2022/12/08 00:39:34;;;;;;;7.22;4.95;;;5.80;99.90;;;;;;4192622;28;20029;-65
2022/12/08 00:43:53;;;;;;;8.93;5.22;;;5.70;99.90;;;;;;4194776;28;20041;-64
2022/12/08 00:45:54;;;;;;;7.55;5.03;;;5.70;99.90;;;;;;4192440;28;20035;-64
2022/12/08 00:47:54;;;;;;;10.82;5.88;;;5.80;99.90;;;;;;4193144;28;20120;-64
2022/12/08 00:49:55;;;;;;;8.82;5.75;;;5.70;99.90;;;;;;4195178;28;20515;-64
2022/12/08 00:51:55;;;;;;;13.52;7.00;;;5.70;99.90;;;;;;4194078;28;20039;-64
2022/12/08 00:53:56;;;;;;;8.95;6.60;;;5.70;99.90;;;;;;4195021;28;20051;-64
2022/12/08 00:55:56;;;;;;;9.65;6.20;;;5.70;99.90;;;;;;4192628;28;20044;-64
2022/12/08 00:57:57;;;;;;;11.65;6.30;;;5.70;99.90;;;;;;4191724;28;20116;-64
2022/12/08 00:59:57;;;;;;;8.63;6.32;;;5.70;99.90;;;;;;4191463;28;20029;-64
2022/12/08 01:01:58;;;;;;;11.90;7.13;;;5.70;99.90;;;;;;4189338;28;20120;-65
2022/12/08 01:04:04;;;;;;;10.77;6.85;;;5.70;99.90;;;;;;4193493;28;20119;-64
2022/12/08 01:06:05;;;;;;;9.73;7.18;;;5.70;99.90;;;;;;4192004;28;20040;-65
2022/12/08 01:08:07;;;;;;;9.77;7.03;;;5.70;99.90;;;;;;4192560;28;20072;-65
2022/12/08 01:10:08;;;;;;;11.53;7.30;;;5.70;99.90;;;;;;4194209;28;20111;-65
2022/12/08 01:12:09;;;;;;;11.90;8.15;;;5.70;99.90;;;;;;4194184;28;20033;-64
2022/12/08 01:14:09;;;;;;;11.00;7.78;;;5.70;99.90;;;;;;4193020;28;20045;-65
2022/12/08 01:16:19;;;;;;;11.35;7.68;;;5.70;99.90;;;;;;4191277;28;20060;-64
2022/12/08 01:18:19;;;;;;;12.68;7.80;;;5.70;99.90;;;;;;4182508;28;20153;-64
2022/12/08 01:20:20;;;;;;;11.73;8.50;;;5.80;99.90;;;;;;4193615;28;20036;-64
2022/12/08 01:22:20;;;;;;;15.07;10.18;;;5.70;99.90;;;;;;4190199;28;20142;-64
2022/12/08 01:24:21;;;;;;;14.70;10.20;;;5.70;99.90;;;;;;4194208;28;20036;-64
2022/12/08 01:26:22;;;;;;;14.75;9.90;;;5.70;99.90;;;;;;4190584;28;20028;-64
2022/12/08 01:28:22;;;;;;;14.82;9.95;;;5.60;99.90;;;;;;4191856;28;20032;-64
2022/12/08 01:30:23;;;;;;;16.23;10.05;;;5.70;99.90;;;;;;4192519;28;20028;-64
2022/12/08 01:32:23;;;;;;;17.88;11.07;;;5.70;99.90;;;;;;4194369;28;20105;-64
2022/12/08 01:34:24;;;;;;;17.08;11.85;;;5.60;99.90;;;;;;4189520;28;20490;-64
2022/12/08 01:36:30;;;;;;;19.27;12.68;;;5.60;99.90;;;;;;4189062;28;20152;-64
2022/12/08 01:38:31;;;;;;;20.83;12.35;;;5.60;99.90;;;;;;4193210;28;20067;-64
2022/12/08 01:40:32;;;;;;;18.48;13.32;;;5.60;99.90;;;;;;4193349;28;20032;-64
2022/12/08 01:42:33;;;;;;;22.23;13.32;;;5.60;99.90;;;;;;4194237;28;20032;-65
2022/12/08 01:44:36;;;;;;;22.63;14.55;;;5.50;99.90;;;;;;4192767;28;20029;-64
2022/12/08 01:46:42;;;;;;;21.33;14.30;;;5.60;99.90;;;;;;4189978;28;20048;-65
2022/12/08 01:48:42;;;;;;;22.25;14.25;;;5.60;99.90;;;;;;4192213;28;20044;-64
2022/12/08 01:50:43;;;;;;;24.67;16.05;;;5.50;99.90;;;;;;4192232;28;20036;-64
2022/12/08 01:52:52;;;;;;;26.33;17.83;;;5.50;99.90;;;;;;4187286;28;20101;-64
2022/12/08 01:54:57;;;;;;;27.80;19.25;;;5.50;99.90;;;;;;4191950;28;20114;-64
2022/12/08 01:57:10;;;;;;;22.33;16.45;;;5.50;99.90;;;;;;4191723;28;20032;-64
2022/12/08 01:59:11;;;;;;;29.88;18.65;;;5.50;99.90;;;;;;4188363;28;20032;-65
2022/12/08 02:01:11;;;;;;;32.17;20.67;;;5.50;99.90;;;;;;4192800;28;20085;-64
2022/12/08 02:03:21;;;;;;;29.02;19.00;;;5.50;99.90;;;;;;4189265;28;20036;-64
2022/12/08 02:05:25;;;;;;;28.23;19.23;;;5.40;99.90;;;;;;4192143;28;20128;-64
2022/12/08 02:07:26;;;;;;;32.58;21.13;;;5.40;99.90;;;;;;4192600;28;20449;-64
2022/12/08 02:09:27;;;;;;;34.35;21.40;;;5.40;99.90;;;;;;4191285;28;20075;-65
2022/12/08 02:11:28;;;;;;;31.60;21.92;;;5.40;99.90;;;;;;4193071;28;20475;-64
2022/12/08 02:13:31;;;;;;;28.80;19.15;;;5.40;99.90;;;;;;4193408;28;20495;-64
2022/12/08 02:16:10;;;;;;;29.20;20.17;;;5.40;99.90;;;;;;4187128;28;20049;-64
2022/12/08 02:18:20;;;;;;;32.15;21.30;;;5.40;99.90;;;;;;4170791;28;20045;-64
2022/12/08 02:20:36;;;;;;;33.38;21.30;;;5.40;99.90;;;;;;4176191;28;20037;-64
2022/12/08 02:22:53;;;;;;;32.15;21.40;;;5.40;99.90;;;;;;4180872;28;20032;-65
2022/12/08 02:25:09;;;;;;;29.20;20.05;;;5.40;99.90;;;;;;4189820;28;20114;-64
2022/12/08 02:27:26;;;;;;;34.50;22.02;;;5.40;99.90;;;;;;4187511;28;20391;-64
2022/12/08 02:29:33;;;;;;;32.78;22.05;;;5.40;99.90;;;;;;4193278;28;20033;-64
2022/12/08 02:32:14;;;;;;;36.67;22.90;;;5.50;99.90;;;;;;4183031;28;20395;-65
2022/12/08 02:34:38;;;;;;;33.80;22.83;;;5.50;99.90;;;;;;4180721;28;20052;-64
2022/12/08 02:36:52;;;;;;;37.80;24.67;;;5.50;99.90;;;;;;4188542;28;20044;-65
2022/12/08 02:39:09;;;;;;;31.60;21.20;;;5.40;99.90;;;;;;4193129;28;20494;-64
2022/12/08 02:41:38;;;;;;;34.88;23.00;;;5.50;99.90;;;;;;4192147;28;20166;-64
2022/12/08 02:43:44;;;;;;;37.85;24.52;;;5.50;99.90;;;;;;4188537;28;20028;-64
2022/12/08 02:45:54;;;;;;;37.47;23.50;;;5.40;99.90;;;;;;4172902;28;20494;-64
2022/12/08 02:47:57;;;;;;;35.45;23.38;;;5.40;99.90;;;;;;4173956;28;20111;-64
2022/12/08 02:49:58;;;;;;;35.42;23.05;;;5.40;99.90;;;;;;4175322;28;20038;-64
2022/12/08 02:52:07;;;;;;;38.67;23.08;;;5.40;99.90;;;;;;4176216;28;20033;-64
2022/12/08 02:54:08;;;;;;;31.75;21.33;;;5.40;99.90;;;;;;4189265;28;20064;-65
2022/12/08 02:56:17;;;;;;;33.28;21.77;;;5.40;99.90;;;;;;4191099;28;20040;-65
2022/12/08 02:58:34;;;;;;;35.53;23.65;;;5.50;99.90;;;;;;4190601;28;20041;-64
2022/12/08 03:01:05;;;;;;;31.70;21.27;;;5.40;99.90;;;;;;4188116;28;20033;-64
2022/12/08 03:03:18;;;;;;;33.85;22.33;;;5.40;99.90;;;;;;4180259;28;20032;-64
2022/12/08 03:05:40;;;;;;;33.88;22.15;;;5.40;99.90;;;;;;4189495;28;20540;-64
2022/12/08 03:08:16;;;;;;;38.08;22.40;;;5.50;99.90;;;;;;4189367;28;20068;-64
2022/12/08 03:10:34;;;;;;;36.25;23.00;;;5.40;99.90;;;;;;4120852;28;20049;-64
2022/12/08 03:12:51;;;;;;;36.97;23.90;;;5.40;99.90;;;;;;4158988;28;20068;-65
2022/12/08 03:14:58;;;;;;;34.95;23.67;;;5.40;99.90;;;;;;4188213;28;20070;-64
2022/12/08 03:17:00;;;;;;;39.53;24.10;;;5.40;99.90;;;;;;4190055;28;20116;-64
2022/12/08 03:19:14;;;;;;;31.60;21.52;;;5.40;99.90;;;;;;4192672;28;20029;-64
2022/12/08 03:21:18;;;;;;;32.42;21.55;;;5.40;99.90;;;;;;4191552;28;20094;-64
2022/12/08 03:23:20;;;;;;;33.20;22.67;;;5.40;99.90;;;;;;4192818;28;20048;-65
2022/12/08 03:25:23;;;;;;;33.92;21.38;;;5.50;99.90;;;;;;4190665;28;20051;-64
2022/12/08 03:27:27;;;;;;;33.17;22.08;;;5.50;99.90;;;;;;4191893;28;20037;-64
2022/12/08 03:29:29;;;;;;;30.77;20.52;;;5.50;99.90;;;;;;4192043;28;20060;-64
2022/12/08 03:31:33;;;;;;;34.80;23.02;;;5.50;99.90;;;;;;4188523;28;20032;-64
2022/12/08 03:33:40;;;;;;;33.70;22.05;;;5.50;99.90;;;;;;4192378;28;20037;-64
2022/12/08 03:35:41;;;;;;;28.95;20.52;;;5.50;99.90;;;;;;4188158;28;20036;-64
2022/12/08 03:37:42;;;;;;;31.15;21.40;;;5.60;99.90;;;;;;4190113;28;20041;-64
2022/12/08 03:39:43;;;;;;;31.48;20.92;;;5.60;99.90;;;;;;4192409;28;20476;-65
2022/12/08 03:41:44;;;;;;;34.75;22.35;;;5.60;99.90;;;;;;4190356;28;20174;-64
2022/12/08 03:43:50;;;;;;;31.70;20.25;;;5.60;99.90;;;;;;4189983;28;20040;-64
2022/12/08 03:45:51;;;;;;;28.60;19.40;;;5.60;99.90;;;;;;4190701;28;20422;-64
2022/12/08 03:47:52;;;;;;;29.92;20.17;;;5.60;99.90;;;;;;4190986;28;20120;-64
2022/12/08 03:49:52;;;;;;;28.27;19.77;;;5.60;99.90;;;;;;4191801;28;20037;-64
2022/12/08 03:51:53;;;;;;;24.98;18.13;;;5.60;99.90;;;;;;4190591;28;20064;-64
2022/12/08 03:53:53;;;;;;;30.48;20.23;;;5.60;99.90;;;;;;4193029;28;20049;-64
2022/12/08 03:55:54;;;;;;;30.90;20.35;;;5.60;99.90;;;;;;4191220;28;20040;-64
2022/12/08 03:57:54;;;;;;;29.15;18.48;;;5.60;99.90;;;;;;4188372;28;20036;-64
2022/12/08 03:59:55;;;;;;;24.90;17.23;;;5.60;99.90;;;;;;4188410;28;20448;-64
2022/12/08 04:01:55;;;;;;;25.45;18.15;;;5.60;99.90;;;;;;4191923;28;20395;-64
2022/12/08 04:03:56;;;;;;;26.80;18.42;;;5.70;99.90;;;;;;4192654;28;20130;-64
2022/12/08 04:05:57;;;;;;;26.30;18.70;;;5.60;99.90;;;;;;4188532;28;20503;-64
2022/12/08 04:07:57;;;;;;;23.20;16.90;;;5.60;99.90;;;;;;4191141;28;20059;-64
2022/12/08 04:09:58;;;;;;;23.10;16.55;;;5.60;99.90;;;;;;4192740;28;20033;-64
2022/12/08 04:11:58;;;;;;;25.55;18.80;;;5.70;99.90;;;;;;4191957;28;20040;-64
2022/12/08 04:13:59;;;;;;;27.75;18.85;;;5.70;99.90;;;;;;4192143;28;20052;-64
2022/12/08 04:15:59;;;;;;;24.20;16.85;;;5.60;99.90;;;;;;4189358;28;20085;-64
2022/12/08 04:18:00;;;;;;;24.10;17.30;;;5.70;99.90;;;;;;4189535;28;20040;-64
2022/12/08 04:20:01;;;;;;;24.83;18.33;;;5.70;99.90;;;;;;4192780;28;20398;-64
2022/12/08 04:22:01;;;;;;;23.08;16.15;;;5.70;99.90;;;;;;4194764;28;20118;-64
2022/12/08 04:24:02;;;;;;;22.92;16.58;;;5.60;99.90;;;;;;4193013;28;20039;-64
2022/12/08 04:26:03;;;;;;;20.00;15.60;;;5.60;99.90;;;;;;4173018;28;20037;-64
2022/12/08 04:28:04;;;;;;;20.92;16.00;;;5.60;99.90;;;;;;4193079;28;20039;-66
2022/12/08 04:30:06;;;;;;;22.10;16.92;;;5.70;99.90;;;;;;4192001;28;20028;-64
2022/12/08 04:32:06;;;;;;;22.58;15.55;;;5.60;99.90;;;;;;4194121;28;20039;-64
2022/12/08 04:34:08;;;;;;;23.00;16.17;;;5.60;99.90;;;;;;4191610;28;20060;-65
2022/12/08 04:36:09;;;;;;;18.65;14.38;;;5.60;99.90;;;;;;4191760;28;20464;-65
2022/12/08 04:38:09;;;;;;;22.77;15.65;;;5.60;99.90;;;;;;4189433;28;20040;-65
2022/12/08 04:40:11;;;;;;;20.08;15.20;;;5.60;99.90;;;;;;4183646;28;20132;-65
2022/12/08 04:42:11;;;;;;;18.00;13.82;;;5.60;99.90;;;;;;4182558;28;20431;-65
2022/12/08 04:44:12;;;;;;;20.50;14.30;;;5.70;99.90;;;;;;4182478;28;20040;-64
2022/12/08 04:46:13;;;;;;;17.42;13.10;;;5.60;99.90;;;;;;4176139;28;20129;-65
2022/12/08 04:48:13;;;;;;;20.75;14.85;;;5.60;99.90;;;;;;4182068;28;20131;-65
2022/12/08 04:50:14;;;;;;;20.23;13.85;;;5.60;99.90;;;;;;4180104;28;20499;-65
2022/12/08 04:52:15;;;;;;;22.77;14.07;;;5.60;99.90;;;;;;4178370;28;20461;-64
2022/12/08 04:54:15;;;;;;;18.08;13.02;;;5.60;99.90;;;;;;4178162;28;20403;-65
2022/12/08 04:56:18;;;;;;;18.33;12.82;;;5.60;99.90;;;;;;4187984;28;20476;-65
2022/12/08 04:58:19;;;;;;;19.38;14.75;;;5.60;99.90;;;;;;4192711;28;20467;-65
2022/12/08 05:00:19;;;;;;;16.77;12.38;;;5.60;99.90;;;;;;4192880;28;20040;-65
2022/12/08 05:02:20;;;;;;;17.77;13.82;;;5.60;99.90;;;;;;4193545;28;20392;-65
2022/12/08 05:04:20;;;;;;;18.35;13.57;;;5.60;99.90;;;;;;4193193;28;20063;-64
2022/12/08 05:06:21;;;;;;;18.05;12.68;;;5.60;99.90;;;;;;4189272;28;20484;-65
2022/12/08 05:08:22;;;;;;;17.30;13.75;;;5.60;99.90;;;;;;4186682;28;20041;-65
2022/12/08 05:10:22;;;;;;;19.55;13.90;;;5.60;99.90;;;;;;4179618;28;20124;-65
2022/12/08 05:12:23;;;;;;;18.75;13.98;;;5.60;99.90;;;;;;4181365;28;20037;-65
2022/12/08 05:14:23;;;;;;;15.77;12.13;;;5.60;99.90;;;;;;4192025;28;20056;-65
2022/12/08 05:16:24;;;;;;;15.45;11.77;;;5.60;99.90;;;;;;4191194;28;20106;-65
2022/12/08 05:18:25;;;;;;;17.10;12.73;;;5.60;99.90;;;;;;4192945;28;20064;-65
2022/12/08 05:20:25;;;;;;;16.70;12.23;;;5.60;99.90;;;;;;4191815;28;20037;-65
2022/12/08 05:22:26;;;;;;;16.77;13.60;;;5.60;99.90;;;;;;4189075;28;20067;-65
2022/12/08 05:24:26;;;;;;;19.15;13.88;;;5.60;99.90;;;;;;4174435;28;20040;-65
2022/12/08 05:26:27;;;;;;;19.73;13.70;;;5.60;99.90;;;;;;4180939;28;20041;-65
2022/12/08 05:28:27;;;;;;;18.45;13.93;;;5.60;99.90;;;;;;4190171;28;20391;-65
2022/12/08 05:30:28;;;;;;;19.88;14.05;;;5.60;99.90;;;;;;4192832;28;20044;-65
2022/12/08 05:32:29;;;;;;;21.92;13.65;;;5.50;99.90;;;;;;4193029;28;20040;-65
2022/12/08 05:34:29;;;;;;;18.65;13.50;;;5.50;99.90;;;;;;4191995;28;20093;-65
2022/12/08 05:36:30;;;;;;;16.40;12.38;;;5.50;99.90;;;;;;4189426;28;20060;-65
2022/12/08 05:38:31;;;;;;;20.23;14.10;;;5.60;99.90;;;;;;4190665;28;20036;-65
2022/12/08 05:40:31;;;;;;;21.48;15.10;;;5.70;99.90;;;;;;4184176;28;20039;-65
2022/12/08 05:42:32;;;;;;;20.77;14.23;;;5.70;99.90;;;;;;4187976;28;20165;-65
2022/12/08 05:44:32;;;;;;;24.13;15.25;;;5.60;99.90;;;;;;4193582;28;20060;-65
2022/12/08 05:46:33;;;;;;;20.70;15.20;;;5.60;99.90;;;;;;4189660;28;20540;-66
2022/12/08 05:48:34;;;;;;;21.65;15.13;;;5.60;99.90;;;;;;4185204;28;20025;-65
2022/12/08 05:50:35;;;;;;;23.92;15.27;;;5.60;99.90;;;;;;4174283;28;20033;-66
2022/12/08 05:52:35;;;;;;;22.02;15.02;;;5.60;99.90;;;;;;4177342;28;20051;-66
2022/12/08 05:54:36;;;;;;;25.75;17.00;;;5.60;99.90;;;;;;4195006;28;20479;-66
2022/12/08 05:56:37;;;;;;;24.23;16.42;;;5.60;99.90;;;;;;4188982;28;20028;-65
2022/12/08 05:58:38;;;;;;;22.70;15.65;;;5.60;99.90;;;;;;4192465;28;20043;-66
2022/12/08 06:00:39;;;;;;;26.05;16.67;;;5.60;99.90;;;;;;4193084;28;20107;-65
2022/12/08 06:02:40;;;;;;;23.58;15.57;;;5.70;99.90;;;;;;4189976;28;20078;-66
2022/12/08 06:04:41;;;;;;;23.73;15.55;;;5.70;99.90;;;;;;4189854;28;20041;-65
2022/12/08 06:06:41;;;;;;;21.88;14.55;;;5.60;99.90;;;;;;4186541;28;20043;-66
2022/12/08 06:08:42;;;;;;;21.42;14.52;;;5.70;99.90;;;;;;4190396;28;20120;-66
2022/12/08 06:10:43;;;;;;;25.27;15.57;;;5.70;99.90;;;;;;4189713;28;20075;-66
2022/12/08 06:12:44;;;;;;;23.10;14.57;;;5.60;99.90;;;;;;4188294;28;20041;-66
2022/12/08 06:14:44;;;;;;;23.40;15.18;;;5.60;99.90;;;;;;4189572;28;20061;-66
2022/12/08 06:16:45;;;;;;;20.63;14.35;;;5.60;99.90;;;;;;4185798;28;20555;-66
2022/12/08 06:18:46;;;;;;;24.00;14.15;;;5.60;99.90;;;;;;4183746;28;20131;-65
2022/12/08 06:20:46;;;;;;;20.48;14.05;;;5.60;99.90;;;;;;4188684;28;20036;-66
2022/12/08 06:22:47;;;;;;;22.67;15.50;;;5.60;99.90;;;;;;4182604;28;20048;-65
2022/12/08 06:24:47;;;;;;;22.83;15.63;;;5.50;99.90;;;;;;4189148;28;20044;-65
2022/12/08 06:26:48;;;;;;;23.65;15.10;;;5.50;99.90;;;;;;4186236;28;20040;-66
2022/12/08 06:28:49;;;;;;;21.73;15.05;;;5.50;99.90;;;;;;4188199;28;20117;-65
2022/12/08 06:30:50;;;;;;;20.80;14.32;;;5.50;99.90;;;;;;4187616;28;20024;-66
2022/12/08 06:32:50;;;;;;;29.67;18.83;;;5.50;99.90;;;;;;4187591;28;20032;-65
2022/12/08 06:34:51;;;;;;;22.17;14.57;;;5.50;99.90;;;;;;4189199;28;20041;-66
2022/12/08 06:36:52;;;;;;;21.98;14.10;;;5.50;99.90;;;;;;4187950;28;20036;-66
2022/12/08 06:38:53;;;;;;;21.27;13.82;;;5.50;99.90;;;;;;4189907;28;20064;-66
2022/12/08 06:40:55;;;;;;;19.70;13.60;;;5.50;99.90;;;;;;4188782;28;20040;-65
2022/12/08 06:42:55;;;;;;;25.33;15.00;;;5.50;99.90;;;;;;4187802;28;20029;-66
2022/12/08 06:44:56;;;;;;;21.98;14.27;;;5.40;99.90;;;;;;4189461;28;20546;-66
2022/12/08 06:46:57;;;;;;;22.70;15.27;;;5.40;99.90;;;;;;4185144;28;20045;-65
2022/12/08 06:48:57;;;;;;;21.92;14.23;;;5.40;99.90;;;;;;4188910;28;20040;-66
2022/12/08 06:51:09;;;;;;;17.25;12.65;;;5.40;99.90;;;;;;4188886;28;20493;-65
2022/12/08 06:53:14;;;;;;;19.38;13.43;;;5.40;99.90;;;;;;4172261;28;20110;-66
2022/12/08 06:55:14;;;;;;;16.67;11.55;;;5.40;99.90;;;;;;4179100;28;20476;-65
2022/12/08 06:57:15;;;;;;;18.38;11.90;;;5.40;99.90;;;;;;4168181;28;20189;-65
2022/12/08 06:59:18;;;;;;;14.52;10.95;;;5.40;99.90;;;;;;4179875;28;20045;-66
2022/12/08 07:01:19;;;;;;;16.95;10.90;;;5.30;99.90;;;;;;4180261;28;20055;-66
2022/12/08 07:03:19;;;;;;;18.15;12.63;;;5.30;99.90;;;;;;4178291;28;20041;-65
2022/12/08 07:05:20;;;;;;;18.08;11.85;;;5.30;99.90;;;;;;4177899;28;20497;-65
2022/12/08 07:07:21;;;;;;;15.00;10.77;;;5.30;99.90;;;;;;4175957;28;20395;-65
2022/12/08 07:09:21;;;;;;;20.40;12.52;;;5.30;99.90;;;;;;4188691;28;20044;-65
2022/12/08 07:11:22;;;;;;;14.65;10.40;;;5.30;99.90;;;;;;4184685;28;20036;-65
2022/12/08 07:13:22;;;;;;;12.70;10.10;;;5.20;99.90;;;;;;4183732;28;20044;-65
2022/12/08 07:15:23;;;;;;;14.73;10.45;;;5.20;99.90;;;;;;4185308;28;20200;-65
2022/12/08 07:17:24;;;;;;;12.25;9.25;;;5.20;99.90;;;;;;4186194;28;20480;-65
2022/12/08 07:19:24;;;;;;;12.07;7.85;;;5.20;99.90;;;;;;4185105;28;20044;-65
2022/12/08 07:21:25;;;;;;;11.90;7.80;;;5.20;99.90;;;;;;4183886;28;20047;-65
2022/12/08 07:23:25;;;;;;;9.60;7.32;;;5.10;99.90;;;;;;4187171;28;20036;-65
2022/12/08 07:25:26;;;;;;;10.40;6.90;;;5.10;99.90;;;;;;4186650;28;20038;-65
2022/12/08 07:27:27;;;;;;;11.45;7.20;;;5.10;99.90;;;;;;4188567;28;20036;-66
2022/12/08 07:29:28;;;;;;;11.23;7.07;;;5.10;99.90;;;;;;4188329;28;20040;-66
2022/12/08 07:31:28;;;;;;;9.73;6.95;;;5.10;99.90;;;;;;4181260;28;20814;-66
2022/12/08 07:33:29;;;;;;;8.93;6.88;;;5.10;99.90;;;;;;4187336;28;20047;-66
2022/12/08 07:35:30;;;;;;;10.05;7.47;;;5.10;99.90;;;;;;4187906;28;20040;-66
2022/12/08 07:37:32;;;;;;;11.73;8.07;;;5.10;99.90;;;;;;4187148;28;20037;-66
2022/12/08 07:39:33;;;;;;;10.80;7.47;;;5.10;99.90;;;;;;4189590;28;20083;-66
2022/12/08 07:41:33;;;;;;;10.18;7.40;;;5.10;99.90;;;;;;4183563;28;20044;-66
2022/12/08 07:43:34;;;;;;;10.98;7.80;;;5.00;99.90;;;;;;4188875;28;20499;-66
2022/12/08 07:45:35;;;;;;;13.20;9.18;;;5.10;99.90;;;;;;4187331;28;20041;-66
2022/12/08 07:47:35;;;;;;;12.15;8.68;;;5.10;99.90;;;;;;4174879;28;20063;-66
2022/12/08 07:49:36;;;;;;;12.02;9.00;;;5.10;99.90;;;;;;4183896;28;20029;-66
2022/12/08 07:51:36;;;;;;;12.80;8.95;;;5.10;99.90;;;;;;4187221;28;20371;-66
2022/12/08 07:53:39;;;;;;;12.88;9.25;;;5.10;99.90;;;;;;4189139;28;20044;-66
2022/12/08 07:55:41;;;;;;;14.05;9.32;;;5.10;99.90;;;;;;4187752;28;20166;-66
2022/12/08 07:57:42;;;;;;;13.32;8.25;;;5.10;99.90;;;;;;4185866;28;20159;-66
2022/12/08 07:59:42;;;;;;;11.70;7.05;;;5.10;99.90;;;;;;4192238;28;20048;-66
2022/12/08 08:01:44;;;;;;;9.02;6.30;;;5.00;99.90;;;;;;4189798;28;20068;-66
2022/12/08 08:03:44;;;;;;;9.57;6.38;;;5.00;99.90;;;;;;4191727;28;20394;-66
2022/12/08 08:05:47;;;;;;;8.10;6.00;;;5.00;99.90;;;;;;4185436;28;20044;-66
2022/12/08 08:07:47;;;;;;;8.52;5.63;;;5.00;99.90;;;;;;4191005;28;20482;-66
2022/12/08 08:09:48;;;;;;;8.75;6.05;;;5.00;99.90;;;;;;4192670;28;20047;-66
2022/12/08 08:11:48;;;;;;;8.05;5.57;;;5.00;99.90;;;;;;4190466;28;20031;-66
2022/12/08 08:13:50;;;;;;;9.30;6.72;;;5.00;99.90;;;;;;4186864;28;20044;-66
2022/12/08 08:15:50;;;;;;;10.00;7.03;;;5.00;99.90;;;;;;4191273;28;20045;-66
2022/12/08 08:17:52;;;;;;;11.45;6.80;;;5.00;99.90;;;;;;4191115;28;20106;-66
2022/12/08 08:19:52;;;;;;;9.25;7.00;;;5.00;99.90;;;;;;4186292;28;20041;-66
2022/12/08 08:21:54;;;;;;;10.88;7.10;;;5.00;99.90;;;;;;4193442;28;20037;-66
2022/12/08 08:23:54;;;;;;;12.35;8.23;;;4.90;99.90;;;;;;4191759;28;20036;-66
2022/12/08 08:25:59;;;;;;;12.98;7.40;;;4.90;99.90;;;;;;4190656;28;20488;-66
2022/12/08 08:27:59;;;;;;;11.77;7.68;;;5.00;99.90;;;;;;4189795;28;20558;-66
2022/12/08 08:30:00;;;;;;;13.32;8.15;;;4.90;99.90;;;;;;4191906;28;20048;-66
2022/12/08 08:32:00;;;;;;;11.48;7.97;;;5.00;99.90;;;;;;4191263;28;20036;-66
2022/12/08 08:34:04;;;;;;;11.90;8.10;;;5.00;99.90;;;;;;4189388;28;20068;-66
2022/12/08 08:36:09;;;;;;;12.63;8.77;;;5.00;99.90;;;;;;4190028;28;20044;-66
2022/12/08 08:38:10;;;;;;;15.13;9.88;;;4.90;99.90;;;;;;4190762;28;20028;-66
2022/12/08 08:40:11;;;;;;;15.05;10.65;;;5.00;99.90;;;;;;4191014;28;20033;-67
2022/12/08 08:42:11;;;;;;;13.68;9.52;;;5.00;99.90;;;;;;4191315;28;20035;-66
2022/12/08 08:44:13;;;;;;;13.52;10.05;;;5.00;99.90;;;;;;4189078;28;20386;-66
2022/12/08 08:46:14;;;;;;;14.02;10.10;;;5.00;99.90;;;;;;4188456;28;20037;-66
2022/12/08 08:48:14;;;;;;;16.83;11.00;;;5.10;99.90;;;;;;4190051;28;20857;-66
2022/12/08 08:50:15;;;;;;;22.00;11.73;;;5.00;99.90;;;;;;4190239;28;20396;-66
2022/12/08 08:52:16;;;;;;;17.98;11.77;;;5.00;99.90;;;;;;4190834;28;20479;-66
2022/12/08 08:54:16;;;;;;;17.40;11.40;;;5.00;99.90;;;;;;4188665;28;20777;-66
2022/12/08 08:56:18;;;;;;;18.02;12.70;;;5.10;99.90;;;;;;4186911;28;20074;-67
2022/12/08 08:58:19;;;;;;;18.15;11.77;;;5.10;99.90;;;;;;4190737;28;20048;-66
2022/12/08 09:00:20;;;;;;;18.17;13.10;;;5.10;99.90;;;;;;4190178;28;20836;-66
2022/12/08 09:02:20;;;;;;;22.98;15.13;;;5.10;99.90;;;;;;4191228;28;20105;-66
2022/12/08 09:04:21;;;;;;;19.77;13.95;;;5.00;99.90;;;;;;4191685;28;20048;-66
2022/12/08 09:06:22;;;;;;;25.80;13.95;;;5.00;99.90;;;;;;4187422;28;20033;-66
2022/12/08 09:08:23;;;;;;;23.00;15.40;;;5.00;99.90;;;;;;4190018;28;20380;-66
2022/12/08 09:10:24;;;;;;;23.98;15.70;;;5.10;99.90;;;;;;4189087;28;20105;-66
2022/12/08 09:12:24;;;;;;;20.38;14.05;;;5.10;99.90;;;;;;4191565;28;20091;-66
2022/12/08 09:14:26;;;;;;;20.98;13.93;;;5.10;99.90;;;;;;4190464;28;20091;-65
2022/12/08 09:16:27;;;;;;;22.90;16.60;;;5.10;99.90;;;;;;4187683;28;20491;-66
2022/12/08 09:18:29;;;;;;;22.88;15.52;;;5.00;99.90;;;;;;4188003;28;20279;-66
2022/12/08 09:20:29;;;;;;;24.37;16.60;;;5.10;99.90;;;;;;4187925;28;20510;-66
2022/12/08 09:22:30;;;;;;;26.85;17.20;;;5.10;99.90;;;;;;4182598;28;20045;-66
2022/12/08 09:24:30;;;;;;;25.95;16.20;;;5.10;99.90;;;;;;4180365;28;20431;-66
2022/12/08 09:26:31;;;;;;;24.25;17.05;;;5.10;99.90;;;;;;4186444;28;20038;-66
2022/12/08 09:28:32;;;;;;;25.88;17.00;;;5.10;99.90;;;;;;4189364;28;20040;-66
2022/12/08 09:30:32;;;;;;;24.00;17.00;;;5.10;99.90;;;;;;4188779;28;20036;-66
2022/12/08 09:32:33;;;;;;;21.80;15.45;;;5.10;99.90;;;;;;4189041;28;20106;-65
2022/12/08 09:34:34;;;;;;;22.00;15.45;;;5.10;99.90;;;;;;4189818;28;20067;-66
2022/12/08 09:36:34;;;;;;;20.50;14.85;;;5.00;99.90;;;;;;4186254;28;20045;-65
2022/12/08 09:38:35;;;;;;;23.90;15.05;;;5.00;99.90;;;;;;4190548;28;20501;-65
2022/12/08 09:40:43;;;;;;;21.98;13.98;;;5.00;99.90;;;;;;4187337;28;20036;-66
2022/12/08 09:42:56;;;;;;;19.40;14.10;;;5.00;99.90;;;;;;4188112;28;20111;-66
2022/12/08 09:45:08;;;;;;;;;;;5.00;99.90;;;;;;4188465;28;20564;-66
2022/12/08 09:47:20;;;;;;;19.30;13.63;;;5.00;99.90;;;;;;4188194;28;19908;-65
2022/12/08 09:49:27;;;;;;;16.35;11.45;;;5.00;99.90;;;;;;4188107;28;20043;-66
2022/12/08 09:51:34;;;;;;;18.83;13.18;;;5.00;99.90;;;;;;4188283;28;20044;-66
2022/12/08 09:53:49;;;;;;;16.92;12.07;;;5.00;99.90;;;;;;4189001;28;20036;-65
2022/12/08 09:55:54;;;;;;;24.73;14.52;;;5.00;99.90;;;;;;4186492;28;20040;-65
2022/12/08 09:58:01;;;;;;;17.88;13.18;;;5.00;99.90;;;;;;4187361;28;20048;-65
2022/12/08 10:00:04;;;;;;;19.15;13.57;;;5.10;99.90;;;;;;4185985;28;20480;-66
2022/12/08 10:02:22;;;;;;;19.70;13.60;;;5.10;99.90;;;;;;4172054;28;20430;-65
2022/12/08 10:04:37;;;;;;;18.08;12.32;;;5.10;99.90;;;;;;4178270;28;20143;-65
2022/12/08 10:06:46;;;;;;;20.88;13.77;;;5.10;99.90;;;;;;4184733;28;20037;-66
2022/12/08 10:09:12;;;;;;;18.50;12.98;;;5.10;99.90;;;;;;4187587;28;20380;-66
2022/12/08 10:11:23;;;;;;;17.90;13.65;;;5.10;99.90;;;;;;4185955;28;20040;-66
2022/12/08 10:13:28;;;;;;;18.42;12.35;;;5.10;99.90;;;;;;4186914;28;20542;-65
2022/12/08 10:15:50;;;;;;;19.52;13.43;;;5.20;99.90;;;;;;4181184;28;20036;-66
2022/12/08 10:17:51;;;;;;;19.75;14.20;;;5.20;99.90;;;;;;4185742;28;20033;-66
2022/12/08 10:20:15;;;;;;;18.00;13.57;;;5.20;99.90;;;;;;4186357;28;20829;-66
2022/12/08 10:22:25;;;;;;;23.05;14.30;;;5.20;99.90;;;;;;4187019;28;20068;-66
2022/12/08 10:24:33;;;;;;;23.45;14.43;;;5.20;99.90;;;;;;4187415;28;20567;-66
2022/12/08 10:26:34;;;;;;;22.15;14.85;;;5.20;99.90;;;;;;4183095;28;20353;-66
2022/12/08 10:28:35;;;;;;;22.05;13.98;;;5.20;99.90;;;;;;4188158;28;20089;-65
2022/12/08 10:30:36;;;;;;;20.15;14.73;;;5.20;99.90;;;;;;4186157;28;20090;-66
2022/12/08 10:32:37;;;;;;;22.05;14.70;;;5.20;99.90;;;;;;4187079;28;20539;-66
2022/12/08 10:35:01;;;;;;;24.02;14.48;;;5.20;99.90;;;;;;4185418;28;20048;-66
2022/12/08 10:37:08;;;;;;;21.90;14.13;;;5.20;99.90;;;;;;4184505;28;20123;-66
2022/12/08 10:39:45;;;;;;;24.33;16.55;;;5.20;99.90;;;;;;4185737;28;20051;-66
2022/12/08 10:41:46;;;;;;;20.85;13.60;;;5.20;99.90;;;;;;4174330;28;20052;-65